Agana, Guam
Current Conditions -  °F | °C
As of 9:54 PM on Thursday 30 Oct 2014 (Local Time) from PGUM Reporting Station
Light Rain Light Rain  
Wind Chill: 79°   Ceiling: 11000
Heat Index: 83°   Visibility: 10mi
Dew Point: 76°   Wind: 8mph
Humidity: 90%   Direction: 100°E
Pressure: 29.83"   Gusts: NA
Location:  13.4751°N, 144.7484°E
Report Text: PGUM 301154Z 10007KT 10SM -RA FEW015 BKN110 26/24 A2983 RMK AO2 RAE1057B52 SLP094 60009 70060 P0000 T02610244 10267 20256 51016
Loading
Personal Weather Stations






























Interactive Weather Map
Tropical Storm Tracking
New forecast layout! Learn more

10-Day Weather Forecast

Advertisements
Track Severe Weather on mobile